Time;durP1;ratioP1;P1;durP2;ratioP2;P2;SDS_P1;SDS_P2;PMS_P1;PMS_P2;Temp;Humidity;BMP_temperature;BMP_pressure;BME280_temperature;BME280_humidity;BME280_pressure;Samples;Min_cycle;Max_cycle;Signal;HPM_P1;HPM_P2
2021/07/31 00:01:06;;;;;;;7.68;2.00;;;19.80;74.80;;;;;;5085064;28;20074;-66
2021/07/31 00:03:32;;;;;;;4.15;1.90;;;19.80;75.20;;;;;;5086729;28;20046;-66
2021/07/31 00:05:57;;;;;;;4.40;1.80;;;19.80;75.00;;;;;;5091657;28;20031;-66
2021/07/31 00:08:24;;;;;;;4.05;1.60;;;19.90;75.00;;;;;;5088611;28;20040;-66
2021/07/31 00:10:50;;;;;;;7.93;2.08;;;19.90;74.50;;;;;;5091288;28;20051;-66
2021/07/31 00:13:15;;;;;;;3.67;1.98;;;19.80;74.70;;;;;;5091354;28;20053;-66
2021/07/31 00:15:41;;;;;;;4.75;2.22;;;19.80;75.10;;;;;;5089984;28;20113;-66
2021/07/31 00:18:07;;;;;;;8.63;2.20;;;19.90;75.20;;;;;;5091596;28;20059;-66
2021/07/31 00:20:33;;;;;;;3.70;1.98;;;19.90;75.10;;;;;;5088365;28;20028;-66
2021/07/31 00:22:58;;;;;;;4.78;1.90;;;19.80;75.10;;;;;;5089326;28;20502;-66
2021/07/31 00:25:24;;;;;;;4.65;1.75;;;19.80;75.10;;;;;;5091732;28;20065;-66
2021/07/31 00:27:50;;;;;;;5.68;1.95;;;19.80;74.90;;;;;;5090225;28;20115;-66
2021/07/31 00:30:16;;;;;;;8.45;2.17;;;19.90;75.70;;;;;;5091005;28;20031;-66
2021/07/31 00:32:42;;;;;;;2.30;1.10;;;19.90;75.10;;;;;;5092652;28;20028;-66
2021/07/31 00:35:11;;;;;;;5.68;1.75;;;19.80;74.40;;;;;;5094309;28;20020;-66
2021/07/31 00:37:36;;;;;;;3.85;2.25;;;19.80;74.50;;;;;;5094079;28;20040;-66
2021/07/31 00:40:02;;;;;;;7.13;1.90;;;19.80;74.60;;;;;;5093342;28;20024;-66
2021/07/31 00:42:28;;;;;;;5.15;1.80;;;19.80;74.60;;;;;;5095082;28;20032;-66
2021/07/31 00:44:53;;;;;;;3.47;1.50;;;19.80;74.60;;;;;;5092542;28;20047;-66
2021/07/31 00:47:19;;;;;;;4.30;1.58;;;19.70;74.50;;;;;;5093756;28;20028;-66
2021/07/31 00:49:45;;;;;;;2.97;1.40;;;19.70;74.70;;;;;;5093610;28;20479;-66
2021/07/31 00:52:11;;;;;;;9.40;1.90;;;19.70;74.70;;;;;;5092646;28;20028;-66
2021/07/31 00:54:37;;;;;;;5.03;1.80;;;19.70;75.00;;;;;;5094708;28;20509;-65
2021/07/31 00:57:03;;;;;;;4.53;1.88;;;19.70;75.10;;;;;;5093551;28;20157;-66
2021/07/31 00:59:40;;;;;;;4.80;1.40;;;19.70;75.00;;;;;;5092937;28;20028;-66
2021/07/31 01:02:05;;;;;;;6.50;2.13;;;19.70;75.00;;;;;;5092538;28;20034;-66
2021/07/31 01:04:31;;;;;;;7.22;1.83;;;19.60;75.20;;;;;;5094418;28;20042;-66
2021/07/31 01:06:57;;;;;;;2.28;0.77;;;19.60;75.60;;;;;;5090942;28;20032;-66
2021/07/31 01:09:23;;;;;;;5.15;1.60;;;19.60;74.80;;;;;;5094165;28;20039;-66
2021/07/31 01:11:49;;;;;;;7.65;2.05;;;19.60;75.30;;;;;;5079194;28;20399;-66
2021/07/31 01:14:15;;;;;;;8.23;1.75;;;19.50;75.60;;;;;;5084894;28;20028;-66
2021/07/31 01:16:41;;;;;;;7.75;1.60;;;19.50;75.80;;;;;;5087715;28;20040;-66
2021/07/31 01:19:07;;;;;;;8.93;1.90;;;19.50;75.40;;;;;;5092079;28;20109;-66
2021/07/31 01:21:43;;;;;;;6.38;1.67;;;19.50;75.50;;;;;;5092576;28;20039;-66
2021/07/31 01:24:22;;;;;;;5.65;2.13;;;19.50;75.80;;;;;;5082302;28;20036;-66
2021/07/31 01:26:49;;;;;;;2.85;1.15;;;19.40;75.70;;;;;;5092049;28;20043;-66
2021/07/31 01:29:16;;;;;;;9.85;2.13;;;19.40;75.50;;;;;;5087434;28;20046;-66
2021/07/31 01:31:45;;;;;;;7.78;1.55;;;19.40;76.00;;;;;;5087678;28;20031;-66
2021/07/31 01:34:11;;;;;;;5.57;1.45;;;19.30;75.60;;;;;;5080920;28;20020;-66
2021/07/31 01:36:36;;;;;;;3.75;1.58;;;19.30;75.60;;;;;;5085538;28;20024;-66
2021/07/31 01:39:03;;;;;;;3.15;1.20;;;19.30;75.90;;;;;;5084240;28;20043;-66
2021/07/31 01:41:29;;;;;;;9.77;2.78;;;19.20;75.90;;;;;;5092820;28;20028;-66
2021/07/31 01:43:57;;;;;;;7.90;2.10;;;19.30;76.10;;;;;;5091615;28;20545;-66
2021/07/31 01:46:24;;;;;;;2.42;1.13;;;19.30;76.40;;;;;;5082101;28;20032;-66
2021/07/31 01:48:51;;;;;;;7.60;2.50;;;19.20;76.20;;;;;;5085547;28;20035;-66
2021/07/31 01:51:17;;;;;;;13.95;3.60;;;19.20;76.80;;;;;;5092754;28;20024;-66
2021/07/31 01:53:43;;;;;;;2.97;1.60;;;19.10;76.80;;;;;;5094360;28;20142;-66
2021/07/31 01:56:09;;;;;;;8.50;2.10;;;19.10;76.70;;;;;;5090546;28;20027;-66
2021/07/31 01:58:36;;;;;;;8.52;2.28;;;19.10;76.70;;;;;;5093643;28;20043;-66
2021/07/31 02:01:03;;;;;;;6.50;2.22;;;19.10;76.70;;;;;;5090291;28;20020;-66
2021/07/31 02:03:29;;;;;;;10.38;2.70;;;19.10;76.90;;;;;;5093088;28;20486;-66
2021/07/31 02:06:14;;;;;;;5.65;1.75;;;19.00;77.00;;;;;;5092503;28;20392;-65
2021/07/31 02:08:41;;;;;;;1.73;1.17;;;19.00;76.90;;;;;;5092670;28;20412;-66
2021/07/31 02:11:06;;;;;;;6.78;1.40;;;19.00;76.90;;;;;;5093029;28;20042;-66
2021/07/31 02:13:32;;;;;;;3.42;1.33;;;18.90;76.70;;;;;;5091649;28;20119;-66
2021/07/31 02:16:04;;;;;;;13.43;1.83;;;18.90;77.10;;;;;;5089393;28;20093;-66
2021/07/31 02:18:33;;;;;;;4.53;1.73;;;18.90;77.20;;;;;;5092261;28;20106;-66
2021/07/31 02:21:00;;;;;;;3.92;1.42;;;18.90;77.30;;;;;;5081285;28;20028;-65
2021/07/31 02:23:49;;;;;;;2.50;1.33;;;18.90;77.50;;;;;;5090773;28;20387;-66
2021/07/31 02:26:33;;;;;;;1.60;1.10;;;18.80;77.50;;;;;;5092268;28;20031;-66
2021/07/31 02:29:06;;;;;;;3.67;1.52;;;18.80;77.70;;;;;;5092015;28;20110;-65
2021/07/31 02:31:36;;;;;;;4.85;2.08;;;18.80;77.80;;;;;;5091152;28;20407;-66
2021/07/31 02:34:04;;;;;;;4.18;1.55;;;18.80;78.20;;;;;;5091234;28;20028;-65
2021/07/31 02:36:32;;;;;;;3.15;1.55;;;18.70;78.20;;;;;;5090068;28;20024;-66
2021/07/31 02:39:03;;;;;;;8.25;2.25;;;18.70;78.40;;;;;;5091749;28;20047;-66
2021/07/31 02:41:29;;;;;;;1.88;1.58;;;18.70;78.70;;;;;;5092916;28;20107;-66
2021/07/31 02:43:58;;;;;;;11.73;3.33;;;18.60;78.60;;;;;;5087949;28;20111;-66
2021/07/31 02:46:24;;;;;;;4.38;1.63;;;18.60;79.20;;;;;;5091500;28;20028;-66
2021/07/31 02:48:50;;;;;;;7.57;2.53;;;18.60;78.90;;;;;;5090893;28;20031;-66
2021/07/31 02:51:18;;;;;;;8.88;2.58;;;18.60;79.30;;;;;;5091199;28;20028;-66
2021/07/31 02:54:12;;;;;;;3.55;2.08;;;18.60;79.20;;;;;;5090284;28;20485;-66
2021/07/31 02:56:38;;;;;;;7.93;2.08;;;18.60;79.30;;;;;;5091953;28;20038;-66
2021/07/31 02:59:09;;;;;;;2.97;1.67;;;18.60;79.50;;;;;;5089711;28;20036;-66
2021/07/31 03:01:35;;;;;;;14.50;3.03;;;18.60;79.50;;;;;;5090577;28;20097;-66
2021/07/31 03:04:02;;;;;;;4.00;1.13;;;18.60;79.90;;;;;;5090859;28;20145;-66
2021/07/31 03:06:27;;;;;;;2.55;1.35;;;18.50;79.80;;;;;;5089539;28;20024;-66
2021/07/31 03:08:54;;;;;;;3.67;2.00;;;18.50;80.00;;;;;;5092230;28;20043;-66
2021/07/31 03:11:22;;;;;;;4.20;2.10;;;18.60;80.10;;;;;;5089530;28;20016;-66
2021/07/31 03:13:49;;;;;;;5.57;2.20;;;18.60;80.50;;;;;;5090959;28;20068;-66
2021/07/31 03:16:17;;;;;;;5.78;1.67;;;18.50;80.40;;;;;;5090100;28;20027;-66
2021/07/31 03:18:46;;;;;;;6.13;2.35;;;18.50;80.40;;;;;;5079961;28;20426;-66
2021/07/31 03:21:14;;;;;;;1.75;1.33;;;18.50;80.70;;;;;;5092011;28;20089;-66
2021/07/31 03:23:52;;;;;;;3.22;1.15;;;18.50;80.80;;;;;;5077479;28;20016;-65
2021/07/31 03:26:17;;;;;;;4.65;1.55;;;18.50;80.80;;;;;;5091217;28;20410;-66
2021/07/31 03:28:45;;;;;;;16.65;2.70;;;18.50;80.80;;;;;;5088785;28;20060;-66
2021/07/31 03:31:18;;;;;;;5.65;2.50;;;18.50;81.00;;;;;;5092396;28;20043;-66
2021/07/31 03:33:44;;;;;;;4.90;1.92;;;18.50;81.30;;;;;;5089372;28;20081;-66
2021/07/31 03:36:10;;;;;;;6.18;2.40;;;18.40;80.70;;;;;;5090600;28;20050;-66
2021/07/31 03:38:40;;;;;;;4.57;2.17;;;18.50;81.20;;;;;;5089968;28;20039;-66
2021/07/31 03:41:06;;;;;;;6.30;2.72;;;18.50;81.20;;;;;;5091185;28;20020;-66
2021/07/31 03:43:37;;;;;;;2.72;1.45;;;18.50;81.30;;;;;;5088693;28;20032;-66
2021/07/31 03:46:07;;;;;;;4.90;1.67;;;18.40;81.40;;;;;;5090411;28;20028;-66
2021/07/31 03:48:33;;;;;;;4.57;1.90;;;18.40;81.60;;;;;;5089173;28;20028;-66
2021/07/31 03:51:00;;;;;;;5.80;2.47;;;18.50;81.70;;;;;;5090332;28;20024;-66
2021/07/31 03:53:32;;;;;;;4.57;2.13;;;18.40;81.80;;;;;;5090880;28;20487;-66
2021/07/31 03:56:02;;;;;;;5.95;1.73;;;18.40;81.80;;;;;;5089942;28;20395;-66
2021/07/31 03:58:30;;;;;;;5.20;1.92;;;18.40;81.90;;;;;;5090386;28;20491;-66
2021/07/31 04:00:56;;;;;;;4.40;2.25;;;18.50;81.80;;;;;;5090154;28;20024;-66
2021/07/31 04:03:21;;;;;;;6.15;2.55;;;18.40;82.20;;;;;;5091826;28;20530;-66
2021/07/31 04:05:51;;;;;;;6.47;2.00;;;18.50;82.40;;;;;;5089468;28;20077;-66
2021/07/31 04:08:46;;;;;;;4.28;1.48;;;18.40;82.40;;;;;;5093391;28;20497;-66
2021/07/31 04:11:30;;;;;;;2.70;1.50;;;18.40;82.60;;;;;;5084358;28;20040;-65
2021/07/31 04:14:34;;;;;;;6.55;1.80;;;18.40;82.60;;;;;;5032587;28;20555;-66
2021/07/31 04:17:11;;;;;;;9.95;2.78;;;18.40;83.10;;;;;;5016663;28;20035;-66
2021/07/31 04:19:37;;;;;;;10.18;3.05;;;18.40;83.00;;;;;;5065743;28;20145;-66
2021/07/31 04:22:05;;;;;;;7.15;2.70;;;18.40;83.20;;;;;;5110251;28;20028;-66
2021/07/31 04:24:37;;;;;;;2.63;1.60;;;18.40;83.30;;;;;;5093879;28;20032;-66
2021/07/31 04:27:04;;;;;;;3.20;1.55;;;18.40;83.40;;;;;;5093474;28;20024;-66
2021/07/31 04:29:30;;;;;;;2.13;1.25;;;18.40;83.30;;;;;;5094015;28;20364;-66
2021/07/31 04:31:56;;;;;;;6.78;2.13;;;18.40;83.40;;;;;;5094750;28;20111;-66
2021/07/31 04:34:22;;;;;;;2.00;1.15;;;18.40;83.80;;;;;;5093319;28;20462;-66
2021/07/31 04:36:48;;;;;;;0.82;0.80;;;18.30;83.90;;;;;;5092455;28;20486;-66
2021/07/31 04:39:14;;;;;;;5.45;1.35;;;18.40;84.20;;;;;;5095192;28;20020;-66
2021/07/31 04:41:40;;;;;;;1.00;0.98;;;18.30;84.40;;;;;;5094369;28;20062;-66
2021/07/31 04:44:06;;;;;;;5.43;1.60;;;18.30;84.80;;;;;;5086822;28;20444;-66
2021/07/31 04:46:31;;;;;;;6.75;2.55;;;18.30;85.10;;;;;;5094448;28;20059;-66
2021/07/31 04:48:57;;;;;;;7.75;2.35;;;18.20;85.40;;;;;;5093764;28;20111;-66
2021/07/31 04:51:23;;;;;;;7.00;2.20;;;18.30;85.60;;;;;;5094530;28;20027;-66
2021/07/31 04:53:49;;;;;;;3.35;1.73;;;18.20;85.90;;;;;;5094171;28;20421;-66
2021/07/31 04:56:14;;;;;;;4.25;1.50;;;18.20;86.00;;;;;;5093379;28;20023;-66
2021/07/31 04:58:40;;;;;;;2.85;1.80;;;18.20;86.20;;;;;;5093939;28;20387;-66
2021/07/31 05:01:06;;;;;;;2.22;1.20;;;18.20;86.30;;;;;;5093775;28;20058;-66
2021/07/31 05:03:31;;;;;;;4.22;1.83;;;18.20;86.50;;;;;;5094497;28;20028;-66
2021/07/31 05:05:57;;;;;;;4.50;2.38;;;18.10;87.00;;;;;;5092995;28;20452;-66
2021/07/31 05:08:23;;;;;;;7.82;1.55;;;18.10;87.80;;;;;;5093010;28;20487;-66
2021/07/31 05:10:52;;;;;;;7.72;2.22;;;18.10;87.40;;;;;;5092258;28;20031;-66
2021/07/31 05:13:19;;;;;;;3.92;1.48;;;18.10;87.80;;;;;;5093587;28;20121;-66
2021/07/31 05:15:46;;;;;;;3.25;1.60;;;18.00;88.20;;;;;;5094559;28;20098;-66
2021/07/31 05:18:12;;;;;;;8.23;1.77;;;18.00;88.30;;;;;;5092053;28;20036;-66
2021/07/31 05:20:40;;;;;;;6.32;2.17;;;18.00;88.40;;;;;;5082556;28;20033;-66
2021/07/31 05:23:06;;;;;;;4.80;2.40;;;18.00;88.50;;;;;;5088076;28;20020;-66
2021/07/31 05:25:31;;;;;;;6.10;2.15;;;18.10;88.50;;;;;;5093550;28;20028;-66
2021/07/31 05:27:57;;;;;;;4.93;2.08;;;18.10;88.60;;;;;;5094835;28;20062;-66
2021/07/31 05:30:23;;;;;;;4.82;1.40;;;18.00;88.70;;;;;;5093176;28;20081;-66
2021/07/31 05:32:49;;;;;;;4.70;2.00;;;18.10;88.80;;;;;;5093749;28;20448;-66
2021/07/31 05:35:15;;;;;;;3.78;1.35;;;18.10;88.80;;;;;;5092522;28;20078;-66
2021/07/31 05:37:40;;;;;;;11.20;1.45;;;18.10;88.90;;;;;;5092642;28;20053;-66
2021/07/31 05:40:07;;;;;;;6.90;1.48;;;18.10;88.90;;;;;;5091264;28;20345;-66
2021/07/31 05:42:33;;;;;;;7.00;2.00;;;18.10;89.00;;;;;;5092306;28;20568;-66
2021/07/31 05:45:00;;;;;;;4.10;1.42;;;18.10;89.10;;;;;;5094596;28;20123;-66
2021/07/31 05:47:27;;;;;;;4.70;1.45;;;18.10;89.30;;;;;;5091779;28;20092;-66
2021/07/31 05:49:54;;;;;;;8.48;2.38;;;18.10;89.20;;;;;;5092528;28;20031;-66
2021/07/31 05:52:24;;;;;;;7.88;2.20;;;18.10;89.20;;;;;;5092723;28;20055;-66
2021/07/31 05:54:50;;;;;;;5.63;1.80;;;18.10;89.30;;;;;;5091240;28;20052;-65
2021/07/31 05:57:16;;;;;;;6.93;1.90;;;18.10;89.50;;;;;;5092817;28;20062;-66
2021/07/31 05:59:41;;;;;;;11.25;2.55;;;18.10;89.90;;;;;;5093203;28;20016;-65
2021/07/31 06:02:07;;;;;;;5.82;2.08;;;18.10;90.00;;;;;;5092567;28;20020;-65
2021/07/31 06:04:33;;;;;;;3.95;1.45;;;18.10;90.10;;;;;;5092955;28;20111;-65
2021/07/31 06:07:00;;;;;;;7.88;1.60;;;18.10;90.10;;;;;;5092882;28;20078;-66
2021/07/31 06:09:26;;;;;;;8.52;3.33;;;18.10;90.20;;;;;;5091661;28;20107;-66
2021/07/31 06:11:52;;;;;;;9.88;2.17;;;18.10;90.30;;;;;;5092573;28;20047;-65
2021/07/31 06:14:18;;;;;;;13.90;3.42;;;18.10;90.30;;;;;;5091787;28;20020;-70
2021/07/31 06:16:43;;;;;;;3.22;1.85;;;18.20;90.30;;;;;;5092594;28;20028;-67
2021/07/31 06:19:09;;;;;;;10.20;2.85;;;18.20;90.40;;;;;;5092847;28;20040;-67
2021/07/31 06:21:36;;;;;;;6.20;1.95;;;18.20;90.40;;;;;;5090635;28;20169;-68
2021/07/31 06:24:03;;;;;;;9.20;1.73;;;18.20;90.40;;;;;;5090438;28;20106;-68
2021/07/31 06:26:28;;;;;;;11.02;3.55;;;18.20;90.30;;;;;;5091017;28;20024;-68
2021/07/31 06:28:54;;;;;;;4.32;1.13;;;18.20;90.30;;;;;;5090655;28;20375;-68
2021/07/31 06:31:20;;;;;;;2.35;1.38;;;18.20;90.20;;;;;;5090041;28;20109;-67
2021/07/31 06:33:46;;;;;;;6.13;1.30;;;18.20;90.20;;;;;;5090844;28;20028;-67
2021/07/31 06:36:12;;;;;;;10.80;2.38;;;18.20;90.30;;;;;;5090536;28;20031;-67
2021/07/31 06:38:37;;;;;;;7.10;2.08;;;18.30;90.40;;;;;;5091036;28;20036;-67
2021/07/31 06:41:05;;;;;;;9.30;2.65;;;18.30;90.40;;;;;;5092832;28;20026;-68
2021/07/31 06:43:30;;;;;;;9.60;2.65;;;18.20;90.50;;;;;;5091064;28;20047;-70
2021/07/31 06:45:56;;;;;;;9.32;2.22;;;18.20;90.50;;;;;;5092276;28;20467;-70
2021/07/31 06:48:22;;;;;;;7.53;2.10;;;18.20;90.60;;;;;;5092476;28;20024;-71
2021/07/31 06:50:47;;;;;;;13.82;2.25;;;18.20;90.70;;;;;;5090771;28;20020;-71
2021/07/31 06:53:13;;;;;;;11.48;2.40;;;18.20;90.70;;;;;;5092581;28;20028;-67
2021/07/31 06:55:38;;;;;;;8.93;2.55;;;18.20;90.80;;;;;;5090214;28;20032;-66
2021/07/31 06:58:04;;;;;;;4.32;1.33;;;18.20;90.90;;;;;;5090359;28;20060;-66
2021/07/31 07:00:30;;;;;;;13.25;2.15;;;18.20;90.90;;;;;;5091827;28;20080;-66
2021/07/31 07:02:55;;;;;;;6.35;2.05;;;18.30;91.00;;;;;;5091431;28;20137;-66
2021/07/31 07:05:21;;;;;;;8.82;2.33;;;18.20;91.10;;;;;;5088351;28;20024;-66
2021/07/31 07:07:47;;;;;;;5.80;2.05;;;18.30;91.10;;;;;;5091789;28;20507;-66
2021/07/31 07:10:13;;;;;;;9.60;2.70;;;18.20;91.20;;;;;;5091338;28;20468;-66
2021/07/31 07:12:38;;;;;;;8.15;1.98;;;18.20;91.30;;;;;;5090822;28;20182;-66
2021/07/31 07:15:05;;;;;;;11.38;2.80;;;18.20;91.30;;;;;;5091516;28;20107;-66
2021/07/31 07:17:30;;;;;;;9.20;2.70;;;18.30;91.30;;;;;;5090914;28;20044;-66
2021/07/31 07:19:56;;;;;;;5.50;1.90;;;18.20;91.40;;;;;;5090149;28;20036;-66
2021/07/31 07:22:24;;;;;;;19.80;2.53;;;18.30;91.60;;;;;;5088853;28;20039;-66
2021/07/31 07:24:50;;;;;;;6.18;1.95;;;18.20;91.70;;;;;;5090931;28;20054;-66
2021/07/31 07:27:16;;;;;;;6.95;2.42;;;18.30;91.80;;;;;;5090999;28;20428;-66
2021/07/31 07:29:42;;;;;;;3.80;1.30;;;18.30;91.80;;;;;;5091734;28;20032;-66
2021/07/31 07:32:08;;;;;;;4.68;1.55;;;18.20;91.70;;;;;;5090136;28;20403;-66
2021/07/31 07:34:38;;;;;;;3.30;1.52;;;18.30;91.70;;;;;;5090383;28;20119;-66
2021/07/31 07:37:03;;;;;;;3.28;1.63;;;18.40;91.80;;;;;;5082624;28;20036;-66
2021/07/31 07:39:29;;;;;;;7.10;1.80;;;18.30;91.90;;;;;;5087117;28;20035;-66
2021/07/31 07:41:55;;;;;;;5.63;1.65;;;18.40;92.00;;;;;;5090828;28;20024;-66
2021/07/31 07:44:21;;;;;;;9.07;1.83;;;18.40;91.90;;;;;;5089975;28;20081;-66
2021/07/31 07:46:46;;;;;;;9.15;2.65;;;18.50;92.00;;;;;;5090966;28;20111;-66
2021/07/31 07:49:12;;;;;;;5.40;1.80;;;18.40;91.90;;;;;;5090918;28;20056;-67
2021/07/31 07:51:39;;;;;;;7.88;1.90;;;18.40;91.90;;;;;;5091341;28;20031;-67
2021/07/31 07:54:05;;;;;;;5.72;1.83;;;18.40;91.90;;;;;;5089993;28;20025;-67
2021/07/31 07:56:30;;;;;;;10.05;1.80;;;18.40;91.80;;;;;;5092404;28;20032;-66
2021/07/31 07:58:59;;;;;;;5.22;1.70;;;18.50;91.70;;;;;;5089940;28;20036;-67
2021/07/31 08:01:25;;;;;;;5.28;1.30;;;18.50;91.60;;;;;;5089784;28;20021;-66
2021/07/31 08:03:51;;;;;;;4.95;1.55;;;18.50;91.40;;;;;;5091086;28;20077;-66
2021/07/31 08:06:17;;;;;;;2.50;0.90;;;18.50;91.30;;;;;;5091154;28;20036;-70
2021/07/31 08:08:44;;;;;;;3.42;1.35;;;18.50;91.40;;;;;;5090375;28;20024;-69
2021/07/31 08:11:09;;;;;;;5.50;1.33;;;18.50;91.50;;;;;;5090995;28;20062;-68
2021/07/31 08:13:35;;;;;;;7.22;1.63;;;18.40;91.50;;;;;;5091334;28;20044;-69
2021/07/31 08:16:01;;;;;;;2.90;1.25;;;18.50;91.60;;;;;;5090144;28;20364;-69
2021/07/31 08:18:26;;;;;;;2.88;1.08;;;18.50;91.50;;;;;;5091258;28;20126;-67
2021/07/31 08:20:52;;;;;;;1.20;0.80;;;18.50;91.40;;;;;;5090417;28;20031;-74
2021/07/31 08:23:18;;;;;;;4.32;1.10;;;18.60;91.50;;;;;;5091051;28;20432;-67
2021/07/31 08:25:46;;;;;;;2.28;1.08;;;18.70;91.30;;;;;;5090927;28;20039;-67
2021/07/31 08:28:12;;;;;;;1.95;1.10;;;18.80;91.10;;;;;;5087894;28;20536;-69
2021/07/31 08:30:38;;;;;;;2.33;1.08;;;18.80;90.50;;;;;;5090794;28;20028;-67
2021/07/31 08:33:03;;;;;;;2.33;1.17;;;18.80;90.30;;;;;;5091197;28;20073;-67
2021/07/31 08:35:29;;;;;;;2.03;1.10;;;18.70;90.10;;;;;;5089103;28;20511;-67
2021/07/31 08:37:55;;;;;;;3.05;1.25;;;18.80;90.00;;;;;;5087551;28;20028;-67
2021/07/31 08:40:24;;;;;;;1.50;0.80;;;18.80;89.90;;;;;;5087565;28;20048;-67
2021/07/31 08:42:49;;;;;;;4.13;1.25;;;18.80;90.00;;;;;;5087845;28;20040;-67
2021/07/31 08:45:16;;;;;;;6.57;1.48;;;18.80;90.20;;;;;;5085727;28;20031;-67
2021/07/31 08:47:49;;;;;;;1.55;0.70;;;18.90;90.10;;;;;;5088812;28;20032;-67
2021/07/31 08:50:16;;;;;;;2.30;1.08;;;18.90;90.00;;;;;;5088140;28;20422;-73
2021/07/31 08:52:46;;;;;;;2.47;0.88;;;19.00;89.70;;;;;;5090868;28;20086;-67
2021/07/31 08:55:12;;;;;;;2.85;1.00;;;19.00;89.50;;;;;;5093645;28;20467;-68
2021/07/31 08:57:38;;;;;;;5.88;1.60;;;19.00;89.40;;;;;;5091929;28;20036;-68
2021/07/31 09:00:05;;;;;;;7.20;2.00;;;19.10;89.50;;;;;;5092577;28;20031;-68
2021/07/31 09:02:45;;;;;;;1.73;0.80;;;19.20;89.20;;;;;;5092624;28;20506;-68
2021/07/31 09:05:12;;;;;;;4.22;0.80;;;19.20;89.30;;;;;;5082041;28;20115;-68
2021/07/31 09:07:39;;;;;;;4.70;1.60;;;19.30;88.90;;;;;;5092489;28;20400;-67
2021/07/31 09:10:24;;;;;;;3.53;1.08;;;19.30;89.00;;;;;;5092188;28;20032;-68
2021/07/31 09:12:58;;;;;;;5.47;1.40;;;19.40;89.00;;;;;;5094216;28;20048;-68
2021/07/31 09:15:31;;;;;;;4.15;1.33;;;19.40;89.50;;;;;;5093949;28;20383;-68
2021/07/31 09:18:18;;;;;;;3.55;0.98;;;19.40;89.60;;;;;;5093931;28;20040;-68
2021/07/31 09:20:43;;;;;;;2.35;1.27;;;19.40;89.60;;;;;;5094231;28;20049;-68
2021/07/31 09:23:09;;;;;;;3.17;0.95;;;19.40;89.20;;;;;;5094424;28;20024;-67
2021/07/31 09:25:36;;;;;;;5.93;1.30;;;19.40;88.90;;;;;;5093256;28;20042;-67
2021/07/31 09:28:18;;;;;;;3.90;1.08;;;19.50;88.20;;;;;;5093440;28;20063;-67
2021/07/31 09:30:53;;;;;;;2.92;1.13;;;19.50;88.40;;;;;;5092476;28;20069;-68
2021/07/31 09:33:20;;;;;;;2.60;0.95;;;19.50;88.20;;;;;;5092276;28;20571;-67
2021/07/31 09:35:59;;;;;;;7.97;1.23;;;19.60;88.20;;;;;;5091604;28;20545;-66
2021/07/31 09:38:35;;;;;;;8.65;1.50;;;19.60;88.10;;;;;;5091598;28;20043;-65
2021/07/31 09:41:20;;;;;;;8.30;1.55;;;19.70;88.10;;;;;;5092852;28;20024;-66
2021/07/31 09:44:15;;;;;;;6.50;1.23;;;19.70;87.70;;;;;;5090441;28;20035;-67
2021/07/31 09:46:50;;;;;;;3.72;1.13;;;19.80;87.50;;;;;;5075678;28;20174;-67
2021/07/31 09:49:20;;;;;;;2.38;0.80;;;19.80;87.50;;;;;;5092444;28;20487;-77
2021/07/31 09:51:51;;;;;;;1.35;0.95;;;19.90;87.80;;;;;;5093031;28;20055;-66
2021/07/31 09:54:19;;;;;;;2.28;0.82;;;19.80;87.70;;;;;;5092641;28;20028;-67
2021/07/31 09:56:49;;;;;;;5.53;1.30;;;19.90;87.60;;;;;;5094002;28;20032;-66
2021/07/31 09:59:18;;;;;;;5.05;1.20;;;19.90;87.50;;;;;;5092524;28;20064;-66
2021/07/31 10:01:56;;;;;;;2.78;0.77;;;20.00;87.40;;;;;;5093848;28;20039;-67
2021/07/31 10:04:22;;;;;;;2.25;0.93;;;20.00;87.40;;;;;;5092796;28;20038;-67
2021/07/31 10:06:49;;;;;;;1.88;0.63;;;20.10;87.40;;;;;;5092720;28;20024;-66
2021/07/31 10:09:15;;;;;;;2.30;1.13;;;20.10;87.50;;;;;;5093204;28;20089;-67
2021/07/31 10:11:41;;;;;;;1.85;1.10;;;20.10;87.60;;;;;;5092884;28;20036;-67
2021/07/31 10:14:09;;;;;;;1.40;0.82;;;20.10;87.60;;;;;;5092992;28;20078;-67
2021/07/31 10:16:40;;;;;;;2.60;0.80;;;20.10;87.70;;;;;;5092244;28;20050;-67
2021/07/31 10:19:08;;;;;;;4.60;1.25;;;20.10;87.90;;;;;;5093444;28;20042;-67
2021/07/31 10:21:52;;;;;;;5.82;1.77;;;20.10;88.00;;;;;;5092254;28;20127;-67
2021/07/31 10:24:18;;;;;;;2.35;1.13;;;20.00;87.90;;;;;;5093474;28;20503;-66
2021/07/31 10:27:22;;;;;;;3.75;1.25;;;20.10;88.00;;;;;;5092770;28;20030;-68
2021/07/31 10:29:53;;;;;;;1.33;0.98;;;20.10;88.10;;;;;;5092454;28;20043;-69
2021/07/31 10:32:21;;;;;;;6.30;1.45;;;20.10;88.50;;;;;;5093717;28;20154;-68
2021/07/31 10:35:01;;;;;;;5.03;1.55;;;20.10;88.60;;;;;;5090890;28;20042;-67
2021/07/31 10:37:29;;;;;;;3.22;1.55;;;20.10;88.60;;;;;;5092068;28;20079;-67
2021/07/31 10:39:56;;;;;;;1.08;0.75;;;20.10;88.60;;;;;;5091507;28;20383;-68
2021/07/31 10:42:23;;;;;;;4.20;1.50;;;20.10;88.50;;;;;;5088755;28;20043;-68
2021/07/31 10:45:10;;;;;;;4.53;1.60;;;20.10;88.50;;;;;;5089575;28;20024;-68
2021/07/31 10:47:35;;;;;;;2.88;0.98;;;20.20;88.50;;;;;;5090674;28;20032;-69
2021/07/31 10:50:24;;;;;;;6.30;1.80;;;20.20;88.30;;;;;;5090771;28;20170;-69
2021/07/31 10:52:56;;;;;;;2.95;0.98;;;20.30;88.10;;;;;;5091323;28;20099;-67
2021/07/31 10:55:24;;;;;;;2.50;0.83;;;20.30;88.00;;;;;;5089083;28;20502;-73
2021/07/31 10:57:53;;;;;;;1.23;0.60;;;20.30;88.00;;;;;;5084850;28;20302;-68
2021/07/31 11:00:30;;;;;;;3.97;1.33;;;20.30;87.90;;;;;;5085794;28;20795;-68
2021/07/31 11:03:03;;;;;;;7.68;1.63;;;20.30;87.90;;;;;;5088289;28;20032;-68
2021/07/31 11:05:49;;;;;;;4.80;1.15;;;20.30;87.80;;;;;;5084485;28;20361;-67
2021/07/31 11:08:19;;;;;;;5.88;1.55;;;20.40;87.70;;;;;;5089207;28;20046;-68
2021/07/31 11:10:46;;;;;;;6.70;1.20;;;20.40;87.90;;;;;;5100007;28;20048;-68
2021/07/31 11:13:16;;;;;;;1.77;1.15;;;20.50;87.70;;;;;;5086309;28;20586;-68
2021/07/31 11:16:00;;;;;;;3.88;1.45;;;20.50;87.50;;;;;;5087415;28;20078;-68
2021/07/31 11:18:39;;;;;;;4.72;1.77;;;20.40;87.40;;;;;;5086933;28;20036;-67
2021/07/31 11:21:21;;;;;;;3.78;1.58;;;20.50;87.70;;;;;;5089297;28;20028;-68
2021/07/31 11:23:49;;;;;;;3.47;1.55;;;20.50;87.60;;;;;;5085606;28;20028;-68
2021/07/31 11:26:46;;;;;;;6.18;1.83;;;20.50;87.10;;;;;;5089830;28;20449;-68
2021/07/31 11:29:24;;;;;;;3.70;1.80;;;20.50;86.90;;;;;;5088404;28;20103;-72
2021/07/31 11:31:57;;;;;;;4.05;1.80;;;20.60;86.60;;;;;;5087431;28;20057;-71
2021/07/31 11:34:26;;;;;;;5.05;1.80;;;20.60;87.00;;;;;;5089397;28;20020;-71
2021/07/31 11:36:57;;;;;;;8.32;2.58;;;20.60;86.90;;;;;;5088304;28;20016;-71
2021/07/31 11:39:23;;;;;;;5.30;1.77;;;20.70;87.00;;;;;;5089615;28;20074;-71
2021/07/31 11:41:49;;;;;;;5.72;1.88;;;20.70;86.50;;;;;;5090276;28;20081;-72
2021/07/31 11:44:26;;;;;;;5.32;1.85;;;20.80;86.00;;;;;;5085171;28;20418;-68
2021/07/31 11:46:53;;;;;;;1.75;1.15;;;20.80;85.20;;;;;;5088524;28;20388;-69
2021/07/31 11:49:30;;;;;;;2.88;1.65;;;20.90;85.30;;;;;;5086948;28;20383;-68
2021/07/31 11:52:00;;;;;;;2.67;1.33;;;20.90;84.80;;;;;;5090995;28;20480;-68
2021/07/31 11:54:27;;;;;;;3.50;1.88;;;20.90;84.80;;;;;;5091107;28;20028;-69
2021/07/31 11:56:53;;;;;;;3.08;1.48;;;21.00;84.40;;;;;;5091595;28;20467;-69
2021/07/31 11:59:29;;;;;;;5.10;1.98;;;21.10;84.50;;;;;;5089345;28;20032;-70
2021/07/31 12:01:56;;;;;;;3.63;1.70;;;21.20;83.80;;;;;;5090192;28;20020;-70
2021/07/31 12:04:46;;;;;;;1.80;0.88;;;21.20;84.40;;;;;;5090311;28;20024;-70
2021/07/31 12:07:22;;;;;;;3.72;0.85;;;21.30;83.90;;;;;;5089252;28;20020;-70
2021/07/31 12:10:08;;;;;;;1.73;1.35;;;21.40;83.90;;;;;;5089731;28;20123;-70
2021/07/31 12:12:36;;;;;;;7.75;2.25;;;21.40;83.70;;;;;;5085230;28;20051;-67
2021/07/31 12:15:07;;;;;;;9.40;2.22;;;21.40;83.90;;;;;;5090574;28;20036;-67
2021/07/31 12:17:33;;;;;;;5.20;1.98;;;21.50;84.10;;;;;;5090880;28;20391;-66
2021/07/31 12:19:59;;;;;;;12.20;2.15;;;21.50;84.20;;;;;;5090540;28;20020;-66
2021/07/31 12:22:36;;;;;;;6.80;1.70;;;21.60;84.20;;;;;;5089161;28;20119;-66
2021/07/31 12:25:16;;;;;;;1.75;1.30;;;21.60;84.20;;;;;;5090024;28;20050;-66
2021/07/31 12:28:05;;;;;;;2.90;1.45;;;21.70;84.40;;;;;;5090494;28;20056;-66
2021/07/31 12:30:38;;;;;;;4.22;1.38;;;21.70;84.20;;;;;;5087566;28;20035;-69
2021/07/31 12:33:06;;;;;;;7.13;2.45;;;21.70;84.30;;;;;;5094789;28;20028;-67
2021/07/31 12:35:50;;;;;;;6.03;2.05;;;21.70;83.40;;;;;;5091911;28;20490;-67
2021/07/31 12:38:21;;;;;;;6.40;1.40;;;21.80;83.80;;;;;;5094688;28;20043;-67
2021/07/31 12:40:53;;;;;;;3.30;1.42;;;21.90;84.30;;;;;;5094706;28;20409;-67
2021/07/31 12:43:19;;;;;;;8.43;1.63;;;21.90;84.10;;;;;;5089841;28;20515;-67
2021/07/31 12:45:46;;;;;;;2.85;1.33;;;21.90;83.10;;;;;;5085900;28;20080;-69
2021/07/31 12:48:15;;;;;;;3.45;1.42;;;21.90;83.60;;;;;;5093244;28;20467;-68
2021/07/31 12:50:42;;;;;;;3.10;1.52;;;22.00;83.60;;;;;;5092003;28;20036;-66
2021/07/31 12:53:09;;;;;;;3.78;1.80;;;22.10;83.70;;;;;;5092992;28;20079;-66
2021/07/31 12:55:34;;;;;;;2.70;1.15;;;22.10;83.50;;;;;;5092787;28;20036;-66